Time;durP1;ratioP1;P1;durP2;ratioP2;P2;SDS_P1;SDS_P2;PMS_P1;PMS_P2;Temp;Humidity;BMP_temperature;BMP_pressure;BME280_temperature;BME280_humidity;BME280_pressure;Samples;Min_cycle;Max_cycle;Signal;HPM_P1;HPM_P2
2022/11/27 00:01:28;;;;;;;;;;;6.30;99.90;;;;;;5156118;27;19994;-40
2022/11/27 00:03:54;;;;;;;;;;;6.30;99.90;;;;;;5155745;27;19919;-39
2022/11/27 00:06:21;;;;;;;;;;;6.30;99.90;;;;;;5154857;27;20081;-40
2022/11/27 00:08:47;;;;;;;;;;;6.30;99.90;;;;;;5154789;27;19946;-42
2022/11/27 00:11:14;;;;;;;;;;;6.30;99.90;;;;;;5155465;27;20369;-38
2022/11/27 00:13:40;;;;;;;;;;;6.30;99.90;;;;;;5153734;27;19917;-39
2022/11/27 00:16:06;;;;;;;;;;;6.30;99.90;;;;;;5155401;27;19919;-40
2022/11/27 00:18:31;;;;;;;;;;;6.30;99.90;;;;;;5155614;27;19963;-40
2022/11/27 00:21:07;;;;;;;;;;;6.30;99.90;;;;;;5154430;27;19997;-43
2022/11/27 00:23:33;;;;;;;;;;;6.20;99.90;;;;;;5155507;27;19912;-39
2022/11/27 00:25:58;;;;;;;;;;;6.20;99.90;;;;;;5155527;27;19918;-40
2022/11/27 00:28:24;;;;;;;;;;;6.20;99.90;;;;;;5154817;27;19911;-39
2022/11/27 00:30:50;;;;;;;;;;;6.20;99.90;;;;;;5155560;27;19907;-38
2022/11/27 00:33:15;;;;;;;;;;;6.20;99.90;;;;;;5154949;27;20293;-39
2022/11/27 00:35:41;;;;;;;;;;;6.20;99.90;;;;;;5154588;27;19971;-39
2022/11/27 00:38:07;;;;;;;;;;;6.20;99.90;;;;;;5154667;27;20009;-39
2022/11/27 00:40:33;;;;;;;;;;;6.20;99.90;;;;;;5154516;27;20245;-41
2022/11/27 00:43:00;;;;;;;;;;;6.20;99.90;;;;;;5155034;27;19971;-40
2022/11/27 00:45:26;;;;;;;;;;;6.20;99.90;;;;;;5155219;27;19910;-39
2022/11/27 00:47:51;;;;;;;;;;;6.20;99.90;;;;;;5154103;27;19918;-39
2022/11/27 00:50:17;;;;;;;;;;;6.20;99.90;;;;;;5154516;27;19934;-39
2022/11/27 00:52:42;;;;;;;;;;;6.10;99.90;;;;;;5154196;27;19954;-39
2022/11/27 00:55:08;;;;;;;;;;;6.10;99.90;;;;;;5154368;27;20006;-40
2022/11/27 00:57:33;;;;;;;;;;;6.10;99.90;;;;;;5154521;27;20304;-41
2022/11/27 00:59:59;;;;;;;;;;;6.00;99.90;;;;;;5136241;27;20002;-39
2022/11/27 01:02:24;;;;;;;;;;;6.00;99.90;;;;;;5154204;27;20001;-40
2022/11/27 01:04:50;;;;;;;;;;;6.00;99.90;;;;;;5154798;27;20002;-40
2022/11/27 01:07:15;;;;;;;;;;;6.00;99.90;;;;;;5154531;27;20002;-39
2022/11/27 01:09:41;;;;;;;;;;;6.00;99.90;;;;;;5154159;27;19914;-39
2022/11/27 01:12:07;;;;;;;;;;;5.90;99.90;;;;;;5154440;27;19918;-40
2022/11/27 01:14:32;;;;;;;;;;;5.90;99.90;;;;;;5154715;27;19911;-38
2022/11/27 01:16:58;;;;;;;;;;;5.90;99.90;;;;;;5153545;27;19954;-39
2022/11/27 01:19:23;;;;;;;;;;;5.80;99.90;;;;;;5154226;27;19915;-41
2022/11/27 01:21:49;;;;;;;;;;;5.80;99.90;;;;;;5154495;27;19911;-43
2022/11/27 01:24:15;;;;;;;;;;;5.70;99.90;;;;;;5153686;27;19928;-40
2022/11/27 01:26:41;;;;;;;;;;;5.70;99.90;;;;;;5153482;27;19911;-39
2022/11/27 01:29:06;;;;;;;;;;;5.70;99.90;;;;;;5154434;27;19911;-40
2022/11/27 01:31:32;;;;;;;;;;;5.70;99.90;;;;;;5153513;27;20297;-39
2022/11/27 01:34:11;;;;;;;;;;;5.60;99.90;;;;;;5154089;27;19911;-40
2022/11/27 01:36:36;;;;;;;;;;;5.70;99.90;;;;;;5153601;27;19923;-44
2022/11/27 01:39:02;;;;;;;;;;;5.60;99.90;;;;;;5154404;27;19914;-41
2022/11/27 01:41:29;;;;;;;;;;;5.60;99.90;;;;;;5154224;27;19911;-41
2022/11/27 01:44:02;;;;;;;;;;;5.50;99.90;;;;;;5152939;27;19956;-39
2022/11/27 01:46:40;;;;;;;;;;;5.50;99.90;;;;;;5154370;27;19911;-40
2022/11/27 01:49:08;;;;;;;;;;;5.50;99.90;;;;;;5153764;27;20002;-39
2022/11/27 01:51:35;;;;;;;;;;;5.50;99.90;;;;;;5152282;27;19919;-39
2022/11/27 01:54:01;;;;;;;;;;;5.40;99.90;;;;;;5154118;27;20361;-42
2022/11/27 01:56:26;;;;;;;;;;;5.40;99.90;;;;;;5153680;27;20014;-40
2022/11/27 01:58:52;;;;;;;;;;;5.40;99.90;;;;;;5153215;27;19910;-39
2022/11/27 02:01:18;;;;;;;;;;;5.30;99.90;;;;;;5153770;27;19914;-41
2022/11/27 02:03:43;;;;;;;;;;;5.30;99.90;;;;;;5153969;27;20370;-39
2022/11/27 02:06:12;;;;;;;;;;;5.30;99.90;;;;;;5153435;27;19907;-40
2022/11/27 02:08:38;;;;;;;;;;;5.30;99.90;;;;;;5153756;27;19964;-40
2022/11/27 02:11:26;;;;;;;;;;;5.30;99.90;;;;;;5153536;27;19907;-39
2022/11/27 02:14:02;;;;;;;;;;;5.30;99.90;;;;;;5153166;27;20284;-38
2022/11/27 02:16:32;;;;;;;;;;;5.30;99.90;;;;;;5153883;27;19919;-39
2022/11/27 02:19:02;;;;;;;;;;;5.30;99.90;;;;;;5152570;27;20373;-40
2022/11/27 02:21:50;;;;;;;;;;;5.20;99.90;;;;;;5153612;27;20373;-40
2022/11/27 02:24:33;;;;;;;;;;;5.30;99.90;;;;;;5153816;27;19910;-40
2022/11/27 02:27:11;;;;;;;;;;;5.20;99.90;;;;;;5152845;27;19915;-41
2022/11/27 02:29:38;;;;;;;;;;;5.30;99.90;;;;;;5153815;27;19914;-39
2022/11/27 02:32:12;;;;;;;;;;;5.30;99.90;;;;;;5153849;27;19911;-39
2022/11/27 02:34:45;;;;;;;;;;;5.30;99.90;;;;;;5152439;27;20009;-39
2022/11/27 02:37:22;;;;;;;;;;;5.30;99.90;;;;;;5154647;27;19958;-40
2022/11/27 02:40:06;;;;;;;;;;;5.30;99.90;;;;;;5157834;27;19969;-39
2022/11/27 02:42:35;;;;;;;;;;;5.30;99.90;;;;;;5157404;27;20350;-40
2022/11/27 02:45:06;;;;;;;;;;;5.30;99.90;;;;;;5157602;27;19989;-38
2022/11/27 02:47:32;;;;;;;;;;;5.30;99.90;;;;;;5156658;27;19908;-40
2022/11/27 02:49:58;;;;;;;;;;;5.40;99.90;;;;;;5157203;27;19911;-40
2022/11/27 02:52:25;;;;;;;;;;;5.30;99.90;;;;;;5156785;27;20321;-39
2022/11/27 02:54:51;;;;;;;;;;;5.30;99.90;;;;;;5155988;27;20405;-39
2022/11/27 02:57:18;;;;;;;;;;;5.30;99.90;;;;;;5157091;27;19919;-39
2022/11/27 02:59:44;;;;;;;;;;;5.40;99.90;;;;;;5157499;27;20379;-40
2022/11/27 03:02:12;;;;;;;;;;;5.30;99.90;;;;;;5156222;27;20396;-39
2022/11/27 03:04:42;;;;;;;;;;;5.40;99.90;;;;;;5157407;27;19911;-39
2022/11/27 03:07:15;;;;;;;;;;;5.40;99.90;;;;;;5157079;27;19952;-39
2022/11/27 03:09:42;;;;;;;;;;;5.40;99.90;;;;;;5156091;27;19994;-39
2022/11/27 03:12:09;;;;;;;;;;;5.40;99.90;;;;;;5156815;27;19918;-39
2022/11/27 03:14:36;;;;;;;;;;;5.40;99.90;;;;;;5157123;27;19911;-39
2022/11/27 03:17:20;;;;;;;;;;;5.40;99.90;;;;;;5156044;27;19911;-39
2022/11/27 03:19:51;;;;;;;;;;;5.40;99.90;;;;;;5156464;27;19911;-41
2022/11/27 03:22:17;;;;;;;;;;;5.40;99.90;;;;;;5155899;27;19919;-41
2022/11/27 03:24:42;;;;;;;;;;;5.40;99.90;;;;;;5156575;27;19911;-39
2022/11/27 03:27:08;;;;;;;;;;;5.40;99.90;;;;;;5156429;27;20005;-40
2022/11/27 03:29:44;;;;;;;;;;;5.50;99.90;;;;;;5155768;27;19952;-39
2022/11/27 03:32:09;;;;;;;;;;;5.50;99.90;;;;;;5156617;27;19911;-41
2022/11/27 03:34:35;;;;;;;;;;;5.50;99.90;;;;;;5156197;27;20296;-41
2022/11/27 03:37:01;;;;;;;;;;;5.50;99.90;;;;;;5155597;27;19918;-40
2022/11/27 03:39:27;;;;;;;;;;;5.50;99.90;;;;;;5156495;27;19911;-39
2022/11/27 03:42:04;;;;;;;;;;;5.50;99.90;;;;;;5156565;27;19911;-42
2022/11/27 03:44:41;;;;;;;;;;;5.50;99.90;;;;;;5155218;27;19911;-42
2022/11/27 03:47:14;;;;;;;;;;;5.60;99.90;;;;;;5155862;27;19915;-40
2022/11/27 03:49:52;;;;;;;;;;;5.60;99.90;;;;;;5155429;27;20373;-39
2022/11/27 03:52:26;;;;;;;;;;;5.60;99.90;;;;;;5154714;27;19972;-40
2022/11/27 03:54:59;;;;;;;;;;;5.60;99.90;;;;;;5155963;27;19915;-39
2022/11/27 03:57:31;;;;;;;;;;;5.60;99.90;;;;;;5154623;27;20403;-39
2022/11/27 03:59:57;;;;;;;;;;;5.60;99.90;;;;;;5156029;27;19918;-39
2022/11/27 04:02:27;;;;;;;;;;;5.60;99.90;;;;;;5156183;27;19918;-39
2022/11/27 04:04:53;;;;;;;;;;;5.60;99.90;;;;;;5171158;27;20297;-38
2022/11/27 04:07:18;;;;;;;;;;;5.60;99.90;;;;;;5155128;27;19919;-40
2022/11/27 04:09:44;;;;;;;;;;;5.60;99.90;;;;;;5155833;27;20354;-41
2022/11/27 04:12:09;;;;;;;;;;;5.60;99.90;;;;;;5154884;27;19911;-39
2022/11/27 04:14:34;;;;;;;;;;;5.60;99.90;;;;;;5155727;27;19915;-40
2022/11/27 04:17:00;;;;;;;;;;;5.60;99.90;;;;;;5155843;27;20491;-39
2022/11/27 04:19:25;;;;;;;;;;;5.60;99.90;;;;;;5154792;27;19915;-40
2022/11/27 04:21:51;;;;;;;;;;;5.60;99.90;;;;;;5155228;27;19917;-44
2022/11/27 04:24:16;;;;;;;;;;;5.60;99.90;;;;;;5153456;27;19946;-39
2022/11/27 04:26:42;;;;;;;;;;;5.60;99.90;;;;;;5152405;27;19911;-41
2022/11/27 04:29:07;;;;;;;;;;;5.70;99.90;;;;;;5153269;27;20311;-39
2022/11/27 04:31:33;;;;;;;;;;;5.70;99.90;;;;;;5153775;27;20005;-39
2022/11/27 04:33:58;;;;;;;;;;;5.70;99.90;;;;;;5153327;27;20374;-40
2022/11/27 04:36:23;;;;;;;;;;;5.70;99.90;;;;;;5155238;27;19919;-41
2022/11/27 04:38:49;;;;;;;;;;;5.70;99.90;;;;;;5155701;27;19907;-42
2022/11/27 04:41:14;;;;;;;;;;;5.70;99.90;;;;;;5154332;27;20055;-39
2022/11/27 04:43:40;;;;;;;;;;;5.70;99.90;;;;;;5155429;27;20361;-40
2022/11/27 04:46:05;;;;;;;;;;;5.70;99.90;;;;;;5154985;27;19917;-39
2022/11/27 04:48:31;;;;;;;;;;;5.70;99.90;;;;;;5154294;27;19991;-42
2022/11/27 04:50:56;;;;;;;;;;;5.70;99.90;;;;;;5154262;27;19937;-39
2022/11/27 04:53:22;;;;;;;;;;;5.70;99.90;;;;;;5154555;27;20014;-39
2022/11/27 04:55:47;;;;;;;;;;;5.70;99.90;;;;;;5153776;27;19971;-42
2022/11/27 04:58:12;;;;;;;;;;;5.70;99.90;;;;;;5154860;27;19907;-39
2022/11/27 05:00:38;;;;;;;;;;;5.70;99.90;;;;;;5153015;27;19911;-39
2022/11/27 05:03:03;;;;;;;;;;;5.70;99.90;;;;;;5154693;27;20353;-38
2022/11/27 05:05:29;;;;;;;;;;;5.70;99.90;;;;;;5154793;27;19917;-42
2022/11/27 05:07:54;;;;;;;;;;;5.70;99.90;;;;;;5153877;27;19919;-39
2022/11/27 05:10:20;;;;;;;;;;;5.60;99.90;;;;;;5154705;27;19919;-41
2022/11/27 05:12:45;;;;;;;;;;;5.60;99.90;;;;;;5154534;27;19915;-40
2022/11/27 05:15:11;;;;;;;;;;;5.60;99.90;;;;;;5153934;27;19919;-41
2022/11/27 05:17:36;;;;;;;;;;;5.60;99.90;;;;;;5154503;27;19958;-39
2022/11/27 05:20:02;;;;;;;;;;;5.60;99.90;;;;;;5154470;27;19907;-40
2022/11/27 05:22:28;;;;;;;;;;;5.60;99.90;;;;;;5153352;27;19989;-39
2022/11/27 05:24:53;;;;;;;;;;;5.60;99.90;;;;;;5154461;27;20370;-40
2022/11/27 05:27:19;;;;;;;;;;;5.60;99.90;;;;;;5154241;27;19911;-43
2022/11/27 05:29:44;;;;;;;;;;;5.60;99.90;;;;;;5153337;27;20370;-40
2022/11/27 05:32:10;;;;;;;;;;;5.60;99.90;;;;;;5154233;27;19911;-39
2022/11/27 05:34:35;;;;;;;;;;;5.60;99.90;;;;;;5154496;27;20455;-39
2022/11/27 05:37:01;;;;;;;;;;;5.60;99.90;;;;;;5153326;27;19911;-40
2022/11/27 05:39:26;;;;;;;;;;;5.60;99.90;;;;;;5154495;27;19914;-39
2022/11/27 05:41:52;;;;;;;;;;;5.60;99.90;;;;;;5153852;27;19954;-40
2022/11/27 05:44:17;;;;;;;;;;;5.60;99.90;;;;;;5153756;27;19949;-39
2022/11/27 05:46:43;;;;;;;;;;;5.60;99.90;;;;;;5153883;27;20434;-39
2022/11/27 05:49:12;;;;;;;;;;;5.60;99.90;;;;;;5153904;27;19915;-39
2022/11/27 05:51:38;;;;;;;;;;;5.60;99.90;;;;;;5152536;27;20277;-39
2022/11/27 05:54:03;;;;;;;;;;;5.60;99.90;;;;;;5153807;27;19960;-41
2022/11/27 05:56:29;;;;;;;;;;;5.60;99.90;;;;;;5153731;27;19919;-39
2022/11/27 05:58:54;;;;;;;;;;;5.60;99.90;;;;;;5153145;27;19959;-40
2022/11/27 06:01:20;;;;;;;;;;;5.60;99.90;;;;;;5154012;27;19936;-40
2022/11/27 06:03:45;;;;;;;;;;;5.60;99.90;;;;;;5154102;27;19915;-40
2022/11/27 06:06:12;;;;;;;;;;;5.60;99.90;;;;;;5153099;27;19949;-39
2022/11/27 06:08:38;;;;;;;;;;;5.60;99.90;;;;;;5153773;27;19915;-40
2022/11/27 06:11:08;;;;;;;;;;;5.60;99.90;;;;;;5153118;27;19907;-40
2022/11/27 06:13:33;;;;;;;;;;;5.60;99.90;;;;;;5157652;27;19907;-41
2022/11/27 06:16:02;;;;;;;;;;;5.60;99.90;;;;;;5157755;27;19923;-42
2022/11/27 06:18:28;;;;;;;;;;;5.60;99.90;;;;;;5157319;27;19911;-39
2022/11/27 06:20:53;;;;;;;;;;;5.60;99.90;;;;;;5157679;27;20334;-41
2022/11/27 06:23:18;;;;;;;;;;;5.50;99.90;;;;;;5157822;27;19907;-39
2022/11/27 06:25:44;;;;;;;;;;;5.50;99.90;;;;;;5157182;27;19949;-39
2022/11/27 06:28:09;;;;;;;;;;;5.60;99.90;;;;;;5158035;27;19914;-41
2022/11/27 06:30:36;;;;;;;;;;;5.50;99.90;;;;;;5157489;27;20006;-43
2022/11/27 06:33:01;;;;;;;;;;;5.60;99.90;;;;;;5156421;27;19911;-39
2022/11/27 06:35:27;;;;;;;;;;;5.50;99.90;;;;;;5157555;27;19919;-39
2022/11/27 06:37:52;;;;;;;;;;;5.50;99.90;;;;;;5157592;27;19950;-40
2022/11/27 06:40:17;;;;;;;;;;;5.50;99.90;;;;;;5156796;27;20384;-41
2022/11/27 06:42:43;;;;;;;;;;;5.50;99.90;;;;;;5157543;27;19911;-39
2022/11/27 06:45:09;;;;;;;;;;;5.50;99.90;;;;;;5157407;27;19980;-40
2022/11/27 06:47:34;;;;;;;;;;;5.50;99.90;;;;;;5156605;27;19911;-39
2022/11/27 06:50:00;;;;;;;;;;;5.50;99.90;;;;;;5156784;27;20002;-39
2022/11/27 06:52:25;;;;;;;;;;;5.50;99.90;;;;;;5157280;27;19929;-39
2022/11/27 06:54:50;;;;;;;;;;;5.50;99.90;;;;;;5156585;27;19911;-39
2022/11/27 06:57:16;;;;;;;;;;;5.60;99.90;;;;;;5157462;27;20387;-39
2022/11/27 06:59:41;;;;;;;;;;;5.60;99.90;;;;;;5157301;27;19914;-39
2022/11/27 07:02:09;;;;;;;;;;;5.60;99.90;;;;;;5156650;27;19932;-39
2022/11/27 07:04:35;;;;;;;;;;;5.60;99.90;;;;;;5157158;27;19911;-39
2022/11/27 07:07:00;;;;;;;;;;;5.50;99.90;;;;;;5156705;27;19918;-40
2022/11/27 07:09:26;;;;;;;;;;;5.60;99.90;;;;;;5156589;27;20005;-39
2022/11/27 07:11:51;;;;;;;;;;;5.50;99.90;;;;;;5157012;27;19934;-39
2022/11/27 07:14:17;;;;;;;;;;;5.60;99.90;;;;;;5155830;27;19933;-39
2022/11/27 07:16:42;;;;;;;;;;;5.60;99.90;;;;;;5155625;27;19919;-39
2022/11/27 07:19:09;;;;;;;;;;;5.60;99.90;;;;;;5157109;27;20005;-40
2022/11/27 07:21:35;;;;;;;;;;;5.60;99.90;;;;;;5155545;27;20306;-39
2022/11/27 07:24:00;;;;;;;;;;;5.60;99.90;;;;;;5155529;27;19915;-39
2022/11/27 07:26:27;;;;;;;;;;;5.60;99.90;;;;;;5156542;27;19919;-40
2022/11/27 07:28:53;;;;;;;;;;;5.60;99.90;;;;;;5155737;27;19918;-40
2022/11/27 07:31:20;;;;;;;;;;;5.60;99.90;;;;;;5156571;27;19911;-39
2022/11/27 07:33:45;;;;;;;;;;;5.70;99.90;;;;;;5156358;27;19958;-39
2022/11/27 07:36:19;;;;;;;;;;;5.70;99.90;;;;;;5155279;27;19977;-41
2022/11/27 07:38:44;;;;;;;;;;;5.60;99.90;;;;;;5156540;27;19911;-39
2022/11/27 07:41:10;;;;;;;;;;;5.70;99.90;;;;;;5156228;27;20367;-39
2022/11/27 07:43:36;;;;;;;;;;;5.70;99.90;;;;;;5154615;27;19915;-39
2022/11/27 07:46:05;;;;;;;;;;;5.70;99.90;;;;;;5154417;27;19918;-40
2022/11/27 07:48:31;;;;;;;;;;;5.70;99.90;;;;;;5154331;27;19911;-39
2022/11/27 07:50:56;;;;;;;;;;;5.70;99.90;;;;;;5152874;27;19911;-40
2022/11/27 07:53:22;;;;;;;;;;;5.70;99.90;;;;;;5154209;27;19963;-39
2022/11/27 07:55:47;;;;;;;;;;;5.80;99.90;;;;;;5154570;27;19919;-39
2022/11/27 07:58:13;;;;;;;;;;;5.80;99.90;;;;;;5153410;27;20002;-43
2022/11/27 08:00:38;;;;;;;;;;;5.70;99.90;;;;;;5154120;27;19923;-40
2022/11/27 08:03:04;;;;;;;;;;;5.80;99.90;;;;;;5153937;27;20361;-40
2022/11/27 08:05:32;;;;;;;;;;;5.80;99.90;;;;;;5152995;27;19915;-38
2022/11/27 08:07:58;;;;;;;;;;;5.80;99.90;;;;;;5153534;27;19911;-39
2022/11/27 08:10:24;;;;;;;;;;;5.80;99.90;;;;;;5153691;27;20289;-39
2022/11/27 08:12:49;;;;;;;;;;;5.90;99.90;;;;;;5152566;27;19915;-39
2022/11/27 08:15:15;;;;;;;;;;;5.90;99.90;;;;;;5154348;27;19950;-40
2022/11/27 08:17:40;;;;;;;;;;;5.90;99.90;;;;;;5153665;27;19971;-42
2022/11/27 08:20:06;;;;;;;;;;;6.00;99.90;;;;;;5154490;27;20258;-39
2022/11/27 08:22:32;;;;;;;;;;;6.00;99.90;;;;;;5155891;27;19914;-39
2022/11/27 08:24:57;;;;;;;;;;;6.00;99.90;;;;;;5154895;27;19907;-39
2022/11/27 08:27:22;;;;;;;;;;;6.10;99.90;;;;;;5155844;27;19907;-40
2022/11/27 08:29:48;;;;;;;;;;;6.10;99.90;;;;;;5155792;27;19907;-40
2022/11/27 08:32:13;;;;;;;;;;;6.10;99.90;;;;;;5154839;27;20374;-39
2022/11/27 08:34:39;;;;;;;;;;;6.20;99.90;;;;;;5155441;27;19930;-43
2022/11/27 08:37:04;;;;;;;;;;;6.20;99.90;;;;;;5155733;27;20283;-38
2022/11/27 08:39:30;;;;;;;;;;;6.20;99.90;;;;;;5154766;27;19907;-38
2022/11/27 08:41:55;;;;;;;;;;;6.20;99.90;;;;;;5155327;27;19910;-40
2022/11/27 08:44:21;;;;;;;;;;;6.20;99.90;;;;;;5155628;27;19914;-39
2022/11/27 08:46:46;;;;;;;;;;;6.30;99.90;;;;;;5154699;27;19959;-40
2022/11/27 08:49:12;;;;;;;;;;;6.30;99.90;;;;;;5155263;27;19907;-40
2022/11/27 08:51:37;;;;;;;;;;;6.30;99.90;;;;;;5154961;27;19919;-39
2022/11/27 08:54:03;;;;;;;;;;;6.30;99.90;;;;;;5154513;27;20350;-39
2022/11/27 08:56:28;;;;;;;;;;;6.30;99.90;;;;;;5155116;27;19975;-39
2022/11/27 08:58:54;;;;;;;;;;;6.30;99.90;;;;;;5155060;27;19918;-39
2022/11/27 09:01:20;;;;;;;;;;;6.30;99.90;;;;;;5154100;27;20262;-41
2022/11/27 09:03:46;;;;;;;;;;;6.30;99.90;;;;;;5154614;27;19974;-42
2022/11/27 09:06:14;;;;;;;;;;;6.40;99.90;;;;;;5153795;27;20362;-39
2022/11/27 09:08:39;;;;;;;;;;;6.30;99.90;;;;;;5153844;27;19907;-39
2022/11/27 09:11:05;;;;;;;;;;;6.40;99.90;;;;;;5154436;27;19935;-39
2022/11/27 09:13:31;;;;;;;;;;;6.40;99.90;;;;;;5154104;27;19911;-39
2022/11/27 09:15:57;;;;;;;;;;;6.40;99.90;;;;;;5153398;27;19923;-39
2022/11/27 09:18:23;;;;;;;;;;;6.40;99.90;;;;;;5154209;27;19918;-39
2022/11/27 09:20:58;;;;;;;;;;;6.40;99.90;;;;;;5152983;27;19954;-41
2022/11/27 09:23:24;;;;;;;;;;;6.50;99.90;;;;;;5154090;27;19998;-39
2022/11/27 09:25:50;;;;;;;;;;;6.50;99.90;;;;;;5154267;27;20446;-40
2022/11/27 09:28:15;;;;;;;;;;;6.50;99.90;;;;;;5153721;27;20277;-42
2022/11/27 09:30:41;;;;;;;;;;;6.50;99.90;;;;;;5153787;27;19942;-39
2022/11/27 09:33:06;;;;;;;;;;;6.50;99.90;;;;;;5154431;27;19907;-41
2022/11/27 09:35:31;;;;;;;;;;;6.50;99.90;;;;;;5153645;27;19915;-40
2022/11/27 09:37:57;;;;;;;;;;;6.50;99.90;;;;;;5154175;27;19911;-39
2022/11/27 09:40:23;;;;;;;;;;;6.40;99.90;;;;;;5153849;27;19917;-43
2022/11/27 09:42:56;;;;;;;;;;;6.40;99.90;;;;;;5153254;27;19911;-40
2022/11/27 09:45:23;;;;;;;;;;;6.40;99.90;;;;;;5153384;27;19997;-40
2022/11/27 09:47:57;;;;;;;;;;;6.50;99.90;;;;;;5153760;27;19907;-39
2022/11/27 09:50:28;;;;;;;;;;;6.50;99.90;;;;;;5153252;27;19942;-39
2022/11/27 09:52:55;;;;;;;;;;;6.50;99.90;;;;;;5153691;27;19923;-39
2022/11/27 09:55:36;;;;;;;;;;;6.40;99.90;;;;;;5153630;27;20361;-41
2022/11/27 09:58:10;;;;;;;;;;;6.50;99.90;;;;;;5153284;27;19915;-39
2022/11/27 10:00:35;;;;;;;;;;;6.40;99.90;;;;;;5154266;27;20366;-41
2022/11/27 10:03:01;;;;;;;;;;;6.40;99.90;;;;;;5153127;27;19918;-46
2022/11/27 10:05:42;;;;;;;;;;;6.50;99.90;;;;;;5153716;27;20291;-41
2022/11/27 10:08:18;;;;;;;;;;;6.40;99.90;;;;;;5154096;27;19930;-40
2022/11/27 10:10:49;;;;;;;;;;;6.50;99.90;;;;;;5153265;27;19914;-39
2022/11/27 10:13:28;;;;;;;;;;;6.40;99.90;;;;;;5152586;27;19926;-44
2022/11/27 10:16:08;;;;;;;;;;;6.40;99.90;;;;;;5151289;27;19915;-39
2022/11/27 10:18:34;;;;;;;;;;;6.40;99.90;;;;;;5150442;27;19907;-41
2022/11/27 10:21:05;;;;;;;;;;;6.50;99.90;;;;;;5152458;27;19915;-39
2022/11/27 10:23:33;;;;;;;;;;;6.40;99.90;;;;;;5152272;27;19950;-40
2022/11/27 10:26:04;;;;;;;;;;;6.40;99.90;;;;;;5151325;27;19911;-39
2022/11/27 10:28:32;;;;;;;;;;;6.40;99.90;;;;;;5150054;27;19957;-41
2022/11/27 10:31:01;;;;;;;;;;;6.40;99.90;;;;;;5152144;27;19918;-40
2022/11/27 10:33:40;;;;;;;;;;;6.40;99.90;;;;;;5153038;27;19911;-39
2022/11/27 10:36:12;;;;;;;;;;;6.40;99.90;;;;;;5153814;27;19983;-39
2022/11/27 10:38:38;;;;;;;;;;;6.50;99.90;;;;;;5152559;27;19964;-39
2022/11/27 10:41:16;;;;;;;;;;;6.40;99.90;;;;;;5153537;27;19907;-41
2022/11/27 10:43:42;;;;;;;;;;;6.50;99.90;;;;;;5152366;27;19964;-40
2022/11/27 10:46:15;;;;;;;;;;;6.50;99.90;;;;;;5152846;27;20315;-39
2022/11/27 10:48:40;;;;;;;;;;;6.50;99.90;;;;;;5153742;27;20320;-40
2022/11/27 10:51:12;;;;;;;;;;;6.50;99.90;;;;;;5153365;27;20373;-39
2022/11/27 10:53:39;;;;;;;;;;;6.50;99.90;;;;;;5152997;27;19907;-39
2022/11/27 10:56:14;;;;;;;;;;;6.50;99.90;;;;;;5152845;27;20205;-39
2022/11/27 10:58:55;;;;;;;;;;;6.50;99.90;;;;;;5153789;27;20334;-43
2022/11/27 11:01:21;;;;;;;;;;;6.50;99.90;;;;;;5156549;27;19914;-40
2022/11/27 11:03:47;;;;;;;;;;;6.50;99.90;;;;;;5156804;27;19915;-40
2022/11/27 11:06:18;;;;;;;;;;;6.50;99.90;;;;;;5156324;27;19964;-41
2022/11/27 11:08:44;;;;;;;;;;;6.50;99.90;;;;;;5157185;27;19907;-41
2022/11/27 11:11:09;;;;;;;;;;;6.50;99.90;;;;;;5157334;27;20002;-43
2022/11/27 11:13:41;;;;;;;;;;;6.50;99.90;;;;;;5156472;27;19907;-41
2022/11/27 11:16:09;;;;;;;;;;;6.50;99.90;;;;;;5157384;27;19923;-40
2022/11/27 11:18:47;;;;;;;;;;;6.50;99.90;;;;;;5157091;27;19907;-40
2022/11/27 11:21:33;;;;;;;;;;;6.50;99.90;;;;;;5155843;27;19911;-40
2022/11/27 11:24:13;;;;;;;;;;;6.50;99.90;;;;;;5157259;27;19907;-40
2022/11/27 11:26:42;;;;;;;;;;;6.50;99.90;;;;;;5157040;27;20340;-40
2022/11/27 11:29:31;;;;;;;;;;;6.50;99.90;;;;;;5156256;27;19995;-41
2022/11/27 11:32:01;;;;;;;;;;;6.50;99.90;;;;;;5134255;27;19959;-41
2022/11/27 11:34:28;;;;;;;;;;;6.50;99.90;;;;;;5156116;27;19921;-41
2022/11/27 11:36:58;;;;;;;;;;;6.50;99.90;;;;;;5156763;27;19915;-40
2022/11/27 11:39:28;;;;;;;;;;;6.50;99.90;;;;;;5156815;27;19915;-39
2022/11/27 11:41:54;;;;;;;;;;;6.50;99.90;;;;;;5155539;27;19994;-41
2022/11/27 11:44:28;;;;;;;;;;;6.50;99.90;;;;;;5156767;27;19999;-41
2022/11/27 11:46:54;;;;;;;;;;;6.60;99.90;;;;;;5156322;27;19911;-40
2022/11/27 11:49:19;;;;;;;;;;;6.60;99.90;;;;;;5155735;27;19914;-41
2022/11/27 11:51:57;;;;;;;;;;;6.60;99.90;;;;;;5155689;27;19926;-41
2022/11/27 11:54:36;;;;;;;;;;;6.60;99.90;;;;;;5156310;27;19938;-40
2022/11/27 11:57:04;;;;;;;;;;;6.60;99.90;;;;;;5155611;27;19922;-41
2022/11/27 11:59:38;;;;;;;;;;;6.60;99.90;;;;;;5156245;27;19907;-41
2022/11/27 12:02:12;;;;;;;;;;;6.60;99.90;;;;;;5156382;27;19950;-39
2022/11/27 12:05:01;;;;;;;;;;;6.70;99.90;;;;;;5155329;27;19908;-40
2022/11/27 12:07:43;;;;;;;;;;;6.70;99.90;;;;;;5155964;27;19911;-40
2022/11/27 12:10:16;;;;;;;;;;;6.70;99.90;;;;;;5154590;27;19914;-41
2022/11/27 12:12:56;;;;;;;;;;;6.70;99.90;;;;;;5155981;27;20038;-43
2022/11/27 12:15:48;;;;;;;;;;;6.80;99.90;;;;;;5155864;27;19980;-39
2022/11/27 12:18:16;;;;;;;;;;;6.80;99.90;;;;;;5115278;27;19907;-40
2022/11/27 12:20:44;;;;;;;;;;;6.80;99.90;;;;;;5155747;27;19914;-41
2022/11/27 12:23:19;;;;;;;;;;;6.80;99.90;;;;;;5155833;27;19915;-42
2022/11/27 12:26:04;;;;;;;;;;;6.80;99.90;;;;;;5155186;27;19914;-40
2022/11/27 12:28:43;;;;;;;;;;;6.80;99.90;;;;;;5155986;27;20010;-40
2022/11/27 12:31:22;;;;;;;;;;;6.80;99.90;;;;;;5155907;27;19911;-39
2022/11/27 12:33:47;;;;;;;;;;;6.80;99.90;;;;;;5156247;27;20361;-40
2022/11/27 12:36:34;;;;;;;;;;;6.80;99.90;;;;;;5155570;27;19925;-39
2022/11/27 12:39:22;;;;;;;;;;;6.90;99.90;;;;;;5154474;27;19907;-40
2022/11/27 12:41:59;;;;;;;;;;;6.90;99.90;;;;;;5155562;27;19911;-40
2022/11/27 12:44:24;;;;;;;;;;;6.90;99.90;;;;;;5155480;27;19906;-41
2022/11/27 12:47:11;;;;;;;;;;;6.90;99.90;;;;;;5154664;27;20479;-42
2022/11/27 12:49:40;;;;;;;;;;;6.90;99.90;;;;;;5154743;27;19911;-40
2022/11/27 12:52:27;;;;;;;;;;;6.90;99.90;;;;;;5154348;27;19925;-40
2022/11/27 12:54:59;;;;;;;;;;;7.00;99.90;;;;;;5155159;27;19922;-41
2022/11/27 12:57:34;;;;;;;;;;;7.00;99.90;;;;;;5155372;27;19907;-40
2022/11/27 13:00:01;;;;;;;;;;;7.00;99.90;;;;;;5153352;27;19956;-41
2022/11/27 13:02:45;;;;;;;;;;;7.10;99.90;;;;;;5155006;27;19911;-41
2022/11/27 13:05:19;;;;;;;;;;;7.00;99.90;;;;;;5155056;27;20472;-40
2022/11/27 13:07:47;;;;;;;;;;;7.10;99.90;;;;;;5153927;27;19908;-41
2022/11/27 13:10:31;;;;;;;;;;;7.10;99.90;;;;;;5155068;27;19963;-41
2022/11/27 13:13:03;;;;;;;;;;;7.10;99.90;;;;;;5154131;27;19968;-41
2022/11/27 13:15:28;;;;;;;;;;;7.10;99.90;;;;;;5154773;27;19920;-41
2022/11/27 13:17:57;;;;;;;;;;;7.10;99.90;;;;;;5154561;27;20273;-39
2022/11/27 13:20:27;;;;;;;;;;;7.10;99.90;;;;;;5154047;27;20369;-40
2022/11/27 13:22:52;;;;;;;;;;;7.10;99.90;;;;;;5154032;27;19911;-41
2022/11/27 13:25:18;;;;;;;;;;;7.10;99.90;;;;;;5154754;27;19907;-41
2022/11/27 13:27:45;;;;;;;;;;;7.10;99.90;;;;;;5153170;27;19907;-40
2022/11/27 13:30:17;;;;;;;;;;;7.00;99.90;;;;;;5154699;27;19911;-42
2022/11/27 13:32:47;;;;;;;;;;;7.00;99.90;;;;;;5154749;27;20010;-44
2022/11/27 13:35:22;;;;;;;;;;;7.00;99.90;;;;;;5153857;27;19915;-40
2022/11/27 13:37:48;;;;;;;;;;;7.00;99.90;;;;;;5154226;27;20013;-42
2022/11/27 13:40:19;;;;;;;;;;;7.00;99.90;;;;;;5154607;27;19911;-42
2022/11/27 13:42:48;;;;;;;;;;;7.00;99.90;;;;;;5153629;27;19990;-41
2022/11/27 13:45:40;;;;;;;;;;;7.00;99.90;;;;;;5154070;27;19908;-44
2022/11/27 13:48:20;;;;;;;;;;;7.00;99.90;;;;;;5148697;27;19965;-42
2022/11/27 13:50:52;;;;;;;;;;;6.90;99.90;;;;;;5154155;27;19954;-41
2022/11/27 13:53:28;;;;;;;;;;;7.00;99.90;;;;;;5154487;27;19914;-41
2022/11/27 13:55:53;;;;;;;;;;;7.00;99.90;;;;;;5153560;27;19944;-43
2022/11/27 13:58:29;;;;;;;;;;;7.00;99.90;;;;;;5154479;27;19930;-42
2022/11/27 14:00:55;;;;;;;;;;;7.00;99.90;;;;;;5154299;27;19918;-41
2022/11/27 14:03:22;;;;;;;;;;;7.00;99.90;;;;;;5153508;27;19907;-42
2022/11/27 14:05:48;;;;;;;;;;;6.90;99.90;;;;;;5153938;27;19918;-40
2022/11/27 14:08:18;;;;;;;;;;;6.90;99.90;;;;;;5154383;27;19907;-40
2022/11/27 14:11:02;;;;;;;;;;;6.90;99.90;;;;;;5153458;27;19907;-42
2022/11/27 14:13:40;;;;;;;;;;;6.90;99.90;;;;;;5154235;27;19964;-40
2022/11/27 14:16:20;;;;;;;;;;;7.00;99.90;;;;;;5153749;27;19926;-43
2022/11/27 14:18:50;;;;;;;;;;;7.00;99.90;;;;;;5154146;27;19951;-44
2022/11/27 14:21:22;;;;;;;;;;;7.00;99.90;;;;;;5154184;27;19994;-40
2022/11/27 14:23:49;;;;;;;;;;;7.00;99.90;;;;;;5153035;27;19957;-40
2022/11/27 14:26:14;;;;;;;;;;;6.90;99.90;;;;;;5133436;28;19957;-41
2022/11/27 14:28:42;;;;;;;;;;;7.00;99.90;;;;;;5133275;28;19968;-41
2022/11/27 14:31:26;;;;;;;;;;;6.90;99.90;;;;;;5132464;28;20350;-42
2022/11/27 14:33:51;;;;;;;;;;;6.90;99.90;;;;;;5135603;27;20424;-40
2022/11/27 14:36:21;;;;;;;;;;;7.00;99.90;;;;;;5158024;27;19945;-42
2022/11/27 14:38:48;;;;;;;;;;;6.90;99.90;;;;;;5157165;27;19907;-39
2022/11/27 14:41:21;;;;;;;;;;;6.90;99.90;;;;;;5157973;27;19911;-41